KAMA/AMA METAR and TAF weather

Enter ICAO airport designator
Station Type Date Time Source
KAMA METAR 2019/12/14 05:53 UTC NOAA

KAMA 140553Z 06008KT 10SM CLR 03/M03 A2994 RMK AO2 SLP122 T00331033 10100 20028 401721017 50002


Station Type Date Time Source
KAMA Decoded METAR 2019/12/14 05:53 UTC NOAA

AMARILLO INTERNATIONAL AIRPORT, TX, United States (KAMA) 35-13N 101-43W 1093M
Dec 14, 2019 - 12:53 AM EST / 2019.12.14 0553 UTC
Wind: from the ENE (060 degrees) at 9 MPH (8 KT):0
Visibility: 10 mile(s):0
Sky conditions: clear
Temperature: 37.9 F (3.3 C)
Dew Point: 26.1 F (-3.3 C)
Relative Humidity: 61%
Pressure (altimeter): 29.94 in. Hg (1013 hPa)
Pressure tendency: 0.01 inches (0.2 hPa) higher than three hours ago
ob: KAMA 140553Z 06008KT 10SM CLR 03/M03 A2994 RMK AO2 SLP122 T00331033 10100 20028 401721017 50002
cycle: 6

Station Type Date Time Source
KAMA TAF 2019/12/14 06:22 UTC NOAA

TAF KAMA 140520Z 1406/1506 03008KT P6SM SCT100 BKN250
FM141600 18018G26KT P6SM BKN250
FM150000 17014KT P6SM BKN250

Example: see airport list